Time;durP1;ratioP1;P1;durP2;ratioP2;P2;SDS_P1;SDS_P2;PMS_P1;PMS_P2;Temp;Humidity;BMP_temperature;BMP_pressure;BME280_temperature;BME280_humidity;BME280_pressure;Samples;Min_cycle;Max_cycle;Signal;HPM_P1;HPM_P2
2022/11/27 00:01:22;;;;;;;63.00;35.28;;;;;;;3.70;100.00;99293.70;1714330;83;21027;-78
2022/11/27 00:03:49;;;;;;;75.95;43.33;;;;;;;3.69;100.00;99298.24;1714185;83;21023;-81
2022/11/27 00:06:20;;;;;;;58.15;32.28;;;;;;;3.65;100.00;99292.97;1714180;83;21014;-81
2022/11/27 00:08:47;;;;;;;58.87;33.60;;;;;;;3.61;100.00;99294.41;1714073;83;21458;-80
2022/11/27 00:11:19;;;;;;;61.88;34.48;;;;;;;3.54;100.00;99290.89;1714080;83;21413;-81
2022/11/27 00:13:46;;;;;;;56.20;30.52;;;;;;;3.53;100.00;99296.77;1703222;83;20994;-80
2022/11/27 00:16:13;;;;;;;41.90;23.75;;;;;;;3.52;100.00;99295.13;1714334;82;21527;-80
2022/11/27 00:18:40;;;;;;;45.12;23.40;;;;;;;3.53;100.00;99290.06;1714027;83;21027;-80
2022/11/27 00:21:13;;;;;;;50.95;23.45;;;;;;;3.52;100.00;99290.27;1714287;83;21027;-81
2022/11/27 00:23:41;;;;;;;53.20;26.10;;;;;;;3.51;100.00;99294.81;1713532;81;21028;-80
2022/11/27 00:26:08;;;;;;;47.55;23.22;;;;;;;3.46;100.00;99297.27;1714761;82;20979;-77
2022/11/27 00:28:35;;;;;;;48.05;28.80;;;;;;;3.47;100.00;99290.05;1714074;83;20995;-77
2022/11/27 00:31:05;;;;;;;46.23;26.17;;;;;;;3.48;100.00;99288.50;1703988;83;21392;-77
2022/11/27 00:33:32;;;;;;;53.65;25.82;;;;;;;3.48;100.00;99280.97;1714594;82;22080;-80
2022/11/27 00:36:05;;;;;;;41.88;23.45;;;;;;;3.45;100.00;99284.89;1719345;83;21000;-80
2022/11/27 00:38:32;;;;;;;44.73;22.98;;;;;;;3.46;100.00;99281.70;1719007;82;21051;-78
2022/11/27 00:41:10;;;;;;;40.35;20.92;;;;;;;3.42;100.00;99287.14;1719573;83;21005;-77
2022/11/27 00:43:37;;;;;;;42.48;22.07;;;;;;;3.40;100.00;99281.98;1685076;83;20938;-80
2022/11/27 00:46:04;;;;;;;41.50;20.72;;;;;;;3.39;100.00;99276.31;1685851;85;21513;-80
2022/11/27 00:48:31;;;;;;;39.08;21.50;;;;;;;3.36;100.00;99274.88;1685590;83;21051;-77
2022/11/27 00:51:04;;;;;;;37.55;19.40;;;;;;;3.37;100.00;99281.06;1685694;85;21024;-81
2022/11/27 00:53:31;;;;;;;36.08;19.57;;;;;;;3.40;100.00;99284.66;1685405;83;21027;-81
2022/11/27 00:55:58;;;;;;;38.48;19.90;;;;;;;3.36;100.00;99279.41;1685583;84;21493;-80
2022/11/27 00:58:25;;;;;;;37.60;18.50;;;;;;;3.31;100.00;99283.20;1685282;83;21012;-80
2022/11/27 01:00:59;;;;;;;40.75;22.20;;;;;;;3.30;100.00;99286.39;1685694;85;21056;-78
2022/11/27 01:03:26;;;;;;;39.03;21.52;;;;;;;3.27;100.00;99287.33;1685329;83;21025;-77
2022/11/27 01:05:53;;;;;;;33.23;18.00;;;;;;;3.20;100.00;99288.64;1685535;85;21313;-77
2022/11/27 01:08:20;;;;;;;38.48;21.77;;;;;;;3.24;100.00;99282.35;1685303;83;21423;-77
2022/11/27 01:10:52;;;;;;;35.63;20.27;;;;;;;3.22;100.00;99285.75;1685663;84;20973;-79
2022/11/27 01:13:22;;;;;;;32.28;18.20;;;;;;;3.18;100.00;99281.33;1685308;83;21005;-81
2022/11/27 01:16:07;;;;;;;35.55;18.87;;;;;;;3.15;100.00;99282.22;1676065;85;21028;-78
2022/11/27 01:18:35;;;;;;;28.65;15.75;;;;;;;3.13;100.00;99287.78;1685332;83;21452;-77
2022/11/27 01:21:02;;;;;;;30.05;17.35;;;;;;;3.16;100.00;99283.87;1685626;85;21107;-80
2022/11/27 01:23:29;;;;;;;31.82;17.27;;;;;;;3.10;100.00;99282.33;1685446;83;20981;-81
2022/11/27 01:26:02;;;;;;;35.70;19.50;;;;;;;3.11;100.00;99273.78;1685585;85;21088;-77
2022/11/27 01:28:29;;;;;;;32.70;17.75;;;;;;;3.09;100.00;99278.00;1707156;82;21058;-77
2022/11/27 01:30:56;;;;;;;32.17;17.05;;;;;;;3.08;100.00;99272.85;1712566;83;21305;-77
2022/11/27 01:33:23;;;;;;;26.73;15.58;;;;;;;3.07;100.00;99271.17;1712572;82;20997;-80
2022/11/27 01:35:55;;;;;;;30.17;17.73;;;;;;;3.06;100.00;99270.86;1714274;82;20947;-77
2022/11/27 01:38:23;;;;;;;29.80;16.45;;;;;;;2.97;100.00;99267.53;1713489;82;20998;-78
2022/11/27 01:41:01;;;;;;;30.37;16.93;;;;;;;2.93;100.00;99268.16;1714345;83;20983;-81
2022/11/27 01:43:40;;;;;;;29.35;17.10;;;;;;;2.90;100.00;99269.87;1713530;83;21072;-77
2022/11/27 01:46:45;;;;;;;37.38;17.45;;;;;;;2.87;100.00;99267.09;1714227;83;20964;-77
2022/11/27 01:49:37;;;;;;;34.03;17.75;;;;;;;2.92;100.00;99275.88;1713952;83;21007;-77
2022/11/27 01:52:15;;;;;;;41.63;21.65;;;;;;;2.91;100.00;99273.71;1714296;82;20976;-81
2022/11/27 01:54:55;;;;;;;35.33;19.30;;;;;;;2.92;100.00;99271.34;1714367;83;20999;-77
2022/11/27 01:57:34;;;;;;;31.73;16.82;;;;;;;2.95;100.00;99273.61;1704779;83;21492;-80
2022/11/27 02:00:01;;;;;;;28.98;15.68;;;;;;;2.94;100.00;99273.81;1704348;83;20967;-80
2022/11/27 02:02:28;;;;;;;29.82;17.10;;;;;;;2.92;100.00;99281.23;1714136;82;21586;-77
2022/11/27 02:04:55;;;;;;;33.28;18.25;;;;;;;2.88;100.00;99274.09;1714191;83;20994;-80
2022/11/27 02:07:22;;;;;;;28.92;15.48;;;;;;;2.87;100.00;99268.42;1714212;83;21078;-81
2022/11/27 02:09:49;;;;;;;26.80;15.13;;;;;;;2.90;100.00;99274.70;1704104;83;21027;-77
2022/11/27 02:12:47;;;;;;;27.15;14.60;;;;;;;2.89;100.00;99275.74;1713836;83;21450;-80
2022/11/27 02:15:38;;;;;;;26.70;15.88;;;;;;;2.90;100.00;99275.22;1714459;83;28086;-77
2022/11/27 02:18:14;;;;;;;28.23;17.17;;;;;;;2.90;100.00;99278.73;1714043;82;20971;-80
2022/11/27 02:21:04;;;;;;;36.80;20.25;;;;;;;2.92;100.00;99279.38;1714314;82;21447;-81
2022/11/27 02:24:14;;;;;;;47.55;20.77;;;;;;;2.92;100.00;99279.38;1714084;83;21011;-77
2022/11/27 02:27:01;;;;;;;51.68;22.40;;;;;;;2.92;100.00;99280.72;1713900;82;21023;-77
2022/11/27 02:29:32;;;;;;;39.13;20.10;;;;;;;2.93;100.00;99283.70;1713812;83;21495;-80
2022/11/27 02:32:31;;;;;;;38.00;20.17;;;;;;;2.92;100.00;99282.05;1713529;83;21408;-77
2022/11/27 02:35:04;;;;;;;;;;;;;;;2.92;100.00;99293.28;1716826;82;21049;-80
2022/11/27 02:37:42;;;;;;;36.80;18.92;;;;;;;2.91;100.00;99283.59;1712602;82;21192;-77
2022/11/27 02:40:32;;;;;;;28.52;16.50;;;;;;;2.92;100.00;99283.91;1712211;83;21457;-80
2022/11/27 02:43:14;;;;;;;30.77;18.20;;;;;;;2.92;100.00;99287.92;1713568;83;20983;-81
2022/11/27 02:45:44;;;;;;;30.97;18.67;;;;;;;2.93;100.00;99290.39;1713841;81;21030;-81
2022/11/27 02:48:12;;;;;;;29.23;17.30;;;;;;;2.96;100.00;99292.66;1714060;83;21027;-81
2022/11/27 02:50:39;;;;;;;34.63;19.07;;;;;;;2.95;100.00;99294.21;1714366;83;21015;-80
2022/11/27 02:53:10;;;;;;;32.40;19.25;;;;;;;2.94;100.00;99297.91;1714095;83;20982;-80
2022/11/27 02:55:37;;;;;;;25.62;16.07;;;;;;;2.95;100.00;99296.89;1713683;83;21408;-77
2022/11/27 02:58:07;;;;;;;29.10;17.70;;;;;;;2.94;100.00;99297.91;1714232;83;20995;-80
2022/11/27 03:00:34;;;;;;;24.60;15.18;;;;;;;2.92;100.00;99305.33;1714279;82;21034;-77
2022/11/27 03:03:04;;;;;;;28.42;15.93;;;;;;;2.95;100.00;99303.58;1703852;83;20963;-81
2022/11/27 03:05:35;;;;;;;24.23;15.38;;;;;;;2.92;100.00;99300.80;1714171;83;20975;-81
2022/11/27 03:08:05;;;;;;;30.32;16.35;;;;;;;2.91;100.00;99301.00;1704043;83;21019;-81
2022/11/27 03:10:55;;;;;;;26.60;15.30;;;;;;;2.90;100.00;99301.48;1714110;83;21021;-77
2022/11/27 03:13:22;;;;;;;25.70;15.13;;;;;;;2.92;100.00;99299.97;1714006;82;21022;-81
2022/11/27 03:16:09;;;;;;;25.50;14.70;;;;;;;2.93;100.00;99308.31;1714239;83;21001;-81
2022/11/27 03:18:57;;;;;;;24.85;15.95;;;;;;;2.93;100.00;99305.13;1713996;82;20995;-80
2022/11/27 03:21:37;;;;;;;27.42;14.87;;;;;;;2.93;100.00;99306.98;1714187;83;20995;-78
2022/11/27 03:24:06;;;;;;;23.65;12.73;;;;;;;2.91;100.00;99302.34;1713992;83;21003;-77
2022/11/27 03:26:33;;;;;;;19.20;11.55;;;;;;;2.89;100.00;99303.85;1704193;83;20990;-77
2022/11/27 03:29:00;;;;;;;21.87;13.25;;;;;;;2.88;100.00;99305.40;1714089;83;21002;-80
2022/11/27 03:31:28;;;;;;;26.95;16.57;;;;;;;2.84;100.00;99307.66;1714118;83;20987;-77
2022/11/27 03:33:55;;;;;;;23.50;14.18;;;;;;;2.84;100.00;99306.32;1713597;82;20978;-78
2022/11/27 03:36:21;;;;;;;32.00;18.07;;;;;;;2.83;100.00;99312.70;1712616;83;21026;-80
2022/11/27 03:38:49;;;;;;;31.68;16.70;;;;;;;2.89;100.00;99313.73;1712509;82;21041;-81
2022/11/27 03:41:45;;;;;;;19.45;11.83;;;;;;;2.91;100.00;99307.70;1712574;83;21811;-81
2022/11/27 03:45:05;;;;;;;20.77;11.15;;;;;;;2.93;100.00;99309.66;1714060;83;21463;-77
2022/11/27 03:48:10;;;;;;;24.92;14.65;;;;;;;2.85;100.00;99306.63;1714083;82;21407;-80
2022/11/27 03:50:58;;;;;;;24.82;11.83;;;;;;;2.73;100.00;99311.70;1714215;82;20980;-81
2022/11/27 03:53:49;;;;;;;28.97;15.23;;;;;;;2.67;100.00;99310.34;1714382;82;21430;-78
2022/11/27 03:56:42;;;;;;;19.95;9.73;;;;;;;2.66;100.00;99308.19;1714129;82;21059;-77
2022/11/27 03:59:19;;;;;;;19.35;9.35;;;;;;;2.66;100.00;99312.71;1714091;83;21039;-77
2022/11/27 04:01:46;;;;;;;13.20;7.45;;;;;;;2.69;100.00;99310.97;1714223;82;21330;-77
2022/11/27 04:04:13;;;;;;;14.90;8.15;;;;;;;2.67;100.00;99308.49;1713895;83;21042;-80
2022/11/27 04:06:40;;;;;;;12.55;7.55;;;;;;;2.67;100.00;99307.67;1714222;83;21462;-80
2022/11/27 04:09:07;;;;;;;9.43;5.70;;;;;;;2.59;100.00;99304.64;1714063;83;21475;-77
2022/11/27 04:11:33;;;;;;;9.68;7.08;;;;;;;2.52;100.00;99305.93;1714110;83;21015;-81
2022/11/27 04:14:00;;;;;;;14.45;7.95;;;;;;;2.47;100.00;99308.87;1714109;83;21019;-77
2022/11/27 04:16:27;;;;;;;10.70;7.20;;;;;;;2.41;100.00;99311.84;1714188;83;21019;-80
2022/11/27 04:18:54;;;;;;;14.33;7.62;;;;;;;2.36;100.00;99310.75;1713901;83;21507;-81
2022/11/27 04:21:21;;;;;;;14.83;8.05;;;;;;;2.32;100.00;99309.51;1713890;83;21018;-80
2022/11/27 04:23:48;;;;;;;17.70;9.80;;;;;;;2.26;100.00;99307.92;1713987;82;20964;-81
2022/11/27 04:26:15;;;;;;;24.77;13.55;;;;;;;2.25;100.00;99310.28;1714139;83;20960;-81
2022/11/27 04:28:42;;;;;;;21.77;13.25;;;;;;;2.26;100.00;99315.12;1714081;83;21420;-77
2022/11/27 04:31:09;;;;;;;33.13;17.80;;;;;;;2.27;100.00;99314.09;1714537;83;20999;-77
2022/11/27 04:33:36;;;;;;;43.98;22.05;;;;;;;2.30;100.00;99316.37;1714662;83;21150;-77
2022/11/27 04:36:03;;;;;;;38.88;20.23;;;;;;;2.30;100.00;99315.03;1719423;83;20976;-78
2022/11/27 04:38:30;;;;;;;32.53;18.12;;;;;;;2.31;100.00;99314.03;1719273;83;20969;-80
2022/11/27 04:40:57;;;;;;;18.12;10.53;;;;;;;2.36;100.00;99314.26;1719369;83;21986;-80
2022/11/27 04:43:24;;;;;;;16.30;8.48;;;;;;;2.38;100.00;99312.20;1714565;83;21037;-77
2022/11/27 04:45:51;;;;;;;16.93;10.50;;;;;;;2.37;100.00;99314.57;1712722;83;20966;-80
2022/11/27 04:48:18;;;;;;;14.68;8.20;;;;;;;2.32;100.00;99309.51;1712554;82;21030;-77
2022/11/27 04:50:44;;;;;;;12.00;6.87;;;;;;;2.30;100.00;99308.34;1712771;83;20994;-77
2022/11/27 04:53:11;;;;;;;12.15;7.65;;;;;;;2.26;100.00;99314.61;1712683;82;21503;-77
2022/11/27 04:55:38;;;;;;;11.85;7.05;;;;;;;2.24;100.00;99306.47;1712713;83;21013;-80
2022/11/27 04:58:05;;;;;;;13.78;7.22;;;;;;;2.24;100.00;99308.63;1712699;82;21158;-81
2022/11/27 05:00:32;;;;;;;13.93;7.33;;;;;;;2.23;100.00;99303.48;1712775;83;21018;-79
2022/11/27 05:02:59;;;;;;;11.68;7.17;;;;;;;2.23;100.00;99302.97;1712652;82;21030;-81
2022/11/27 05:05:26;;;;;;;12.35;6.80;;;;;;;2.23;100.00;99303.48;1712721;83;21021;-77
2022/11/27 05:07:53;;;;;;;12.30;6.60;;;;;;;2.19;100.00;99302.20;1712719;82;21739;-77
2022/11/27 05:10:19;;;;;;;12.07;6.85;;;;;;;2.19;100.00;99303.02;1712661;83;21018;-81
2022/11/27 05:12:46;;;;;;;11.97;7.58;;;;;;;2.15;100.00;99299.61;1712731;82;20997;-80
2022/11/27 05:15:13;;;;;;;16.23;9.10;;;;;;;2.11;100.00;99297.00;1712596;83;21053;-77
2022/11/27 05:17:40;;;;;;;12.55;7.00;;;;;;;2.07;100.00;99296.56;1712405;82;21057;-77
2022/11/27 05:20:08;;;;;;;15.08;7.62;;;;;;;2.11;100.00;99303.68;1712667;83;20958;-77
2022/11/27 05:22:35;;;;;;;15.72;9.18;;;;;;;2.08;100.00;99309.42;1712670;82;21042;-77
2022/11/27 05:25:02;;;;;;;14.50;7.62;;;;;;;2.06;100.00;99310.96;1712464;83;21418;-80
2022/11/27 05:27:28;;;;;;;13.72;7.85;;;;;;;2.06;100.00;99308.29;1712524;82;21081;-77
2022/11/27 05:29:55;;;;;;;18.35;9.83;;;;;;;2.04;100.00;99312.98;1712585;83;21015;-77
2022/11/27 05:32:22;;;;;;;17.15;10.03;;;;;;;2.03;100.00;99318.02;1712729;82;20982;-77
2022/11/27 05:34:49;;;;;;;17.77;11.12;;;;;;;2.06;100.00;99312.81;1713677;83;21511;-77
2022/11/27 05:37:16;;;;;;;18.90;10.82;;;;;;;2.06;100.00;99316.31;1714299;82;20999;-77
2022/11/27 05:39:43;;;;;;;23.20;12.82;;;;;;;2.03;100.00;99314.00;1714196;82;20998;-81
2022/11/27 05:42:10;;;;;;;15.50;9.33;;;;;;;2.04;100.00;99312.98;1714350;83;21019;-77
2022/11/27 05:44:37;;;;;;;14.05;9.40;;;;;;;2.05;100.00;99311.12;1714252;83;20956;-80
2022/11/27 05:47:04;;;;;;;10.55;6.95;;;;;;;2.05;100.00;99314.66;1714373;83;22135;-77
2022/11/27 05:49:30;;;;;;;10.48;7.12;;;;;;;2.05;100.00;99309.31;1714054;83;20940;-77
2022/11/27 05:51:57;;;;;;;12.73;7.47;;;;;;;2.06;100.00;99306.13;1714409;83;20951;-77
2022/11/27 05:54:24;;;;;;;12.25;7.20;;;;;;;2.03;100.00;99308.66;1714057;83;21034;-81
2022/11/27 05:56:51;;;;;;;22.77;14.05;;;;;;;2.03;100.00;99307.31;1714446;83;21006;-81
2022/11/27 05:59:18;;;;;;;30.50;17.92;;;;;;;2.01;100.00;99305.86;1712451;82;21005;-80
2022/11/27 06:01:45;;;;;;;26.48;17.10;;;;;;;2.03;100.00;99297.95;1663575;85;20992;-77
2022/11/27 06:04:12;;;;;;;38.33;21.25;;;;;;;1.95;100.00;99306.94;1663467;86;20984;-77
2022/11/27 06:06:39;;;;;;;34.23;19.80;;;;;;;1.91;100.00;99305.69;1663703;86;21464;-81
2022/11/27 06:09:06;;;;;;;24.87;13.95;;;;;;;1.90;100.00;99308.56;1663415;85;21016;-77
2022/11/27 06:11:33;;;;;;;25.50;14.80;;;;;;;1.92;100.00;99308.67;1663692;86;21173;-80
2022/11/27 06:13:59;;;;;;;22.58;10.75;;;;;;;1.92;100.00;99314.02;1663408;86;20976;-77
2022/11/27 06:16:26;;;;;;;18.05;10.40;;;;;;;1.95;100.00;99310.13;1663350;85;21544;-77
2022/11/27 06:18:54;;;;;;;13.35;8.78;;;;;;;1.96;100.00;99311.78;1663076;86;21024;-80
2022/11/27 06:21:22;;;;;;;13.38;8.23;;;;;;;1.96;100.00;99317.95;1663250;86;20989;-77
2022/11/27 06:23:54;;;;;;;15.00;8.50;;;;;;;1.96;100.00;99315.27;1642476;86;21024;-80
2022/11/27 06:26:25;;;;;;;10.08;7.37;;;;;;;1.98;100.00;99323.13;1663524;86;21441;-78
2022/11/27 06:28:52;;;;;;;13.53;8.08;;;;;;;2.01;100.00;99324.07;1663533;86;21436;-81
2022/11/27 06:31:22;;;;;;;15.50;8.88;;;;;;;2.05;100.00;99320.48;1663636;86;21015;-77
2022/11/27 06:33:50;;;;;;;17.57;9.88;;;;;;;2.10;100.00;99319.41;1653598;83;21465;-81
2022/11/27 06:36:17;;;;;;;16.80;9.58;;;;;;;2.08;100.00;99303.56;1714232;83;21037;-81
2022/11/27 06:38:44;;;;;;;12.07;7.80;;;;;;;2.04;100.00;99312.16;1703724;83;20997;-77
2022/11/27 06:41:18;;;;;;;12.68;7.22;;;;;;;2.02;100.00;99310.19;1714313;82;20986;-77
2022/11/27 06:43:45;;;;;;;11.97;7.30;;;;;;;2.03;100.00;99309.17;1685410;83;21457;-77
2022/11/27 06:46:15;;;;;;;11.33;6.65;;;;;;;2.03;100.00;99315.34;1685605;84;20989;-77
2022/11/27 06:48:43;;;;;;;12.47;7.15;;;;;;;2.05;100.00;99307.97;1685452;83;21131;-77
2022/11/27 06:51:16;;;;;;;11.28;7.20;;;;;;;2.07;100.00;99301.92;1685642;84;20969;-77
2022/11/27 06:53:43;;;;;;;16.00;8.45;;;;;;;2.06;100.00;99308.80;1685286;83;21151;-80
2022/11/27 06:56:13;;;;;;;16.42;9.80;;;;;;;2.09;100.00;99307.89;1685347;85;20974;-77
2022/11/27 06:58:40;;;;;;;17.20;9.00;;;;;;;2.09;100.00;99305.73;1685413;83;21017;-80
2022/11/27 07:01:11;;;;;;;15.70;8.08;;;;;;;2.06;100.00;99305.61;1685614;84;21167;-77
2022/11/27 07:03:37;;;;;;;14.65;7.92;;;;;;;2.06;100.00;99298.93;1685345;83;21056;-81
2022/11/27 07:06:06;;;;;;;13.22;7.75;;;;;;;2.08;100.00;99297.39;1685644;84;21013;-80
2022/11/27 07:08:33;;;;;;;15.50;8.33;;;;;;;2.06;100.00;99296.77;1685461;83;20997;-77
2022/11/27 07:11:02;;;;;;;10.95;6.65;;;;;;;2.05;100.00;99296.42;1685679;84;20977;-77
2022/11/27 07:13:29;;;;;;;11.18;6.50;;;;;;;2.07;100.00;99297.91;1685502;83;21068;-80
2022/11/27 07:16:04;;;;;;;13.28;7.25;;;;;;;2.12;100.00;99301.31;1685493;84;21072;-80
2022/11/27 07:18:42;;;;;;;14.40;7.87;;;;;;;2.17;100.00;99308.26;1685415;83;21435;-77
2022/11/27 07:21:09;;;;;;;12.25;7.03;;;;;;;2.21;100.00;99306.84;1684088;84;21024;-80
2022/11/27 07:23:36;;;;;;;11.25;6.62;;;;;;;2.23;100.00;99306.16;1685376;83;21512;-80
2022/11/27 07:26:08;;;;;;;23.27;13.43;;;;;;;2.22;100.00;99301.31;1685758;84;20993;-81
2022/11/27 07:28:35;;;;;;;26.48;14.65;;;;;;;2.23;100.00;99307.49;1651904;85;21063;-77
2022/11/27 07:31:02;;;;;;;37.67;20.45;;;;;;;2.23;100.00;99309.66;1685638;85;20985;-80
2022/11/27 07:33:29;;;;;;;30.08;15.72;;;;;;;2.25;100.00;99310.28;1654047;85;21016;-80
2022/11/27 07:36:00;;;;;;;47.15;24.43;;;;;;;2.28;100.00;99313.06;1713972;83;21014;-80
2022/11/27 07:38:26;;;;;;;35.85;18.85;;;;;;;2.30;100.00;99312.35;1713820;82;21006;-80
2022/11/27 07:40:53;;;;;;;37.45;21.35;;;;;;;2.34;100.00;99306.95;1714040;83;20983;-81
2022/11/27 07:43:20;;;;;;;31.23;17.60;;;;;;;2.38;100.00;99307.37;1714164;83;20975;-80
2022/11/27 07:45:47;;;;;;;42.20;22.98;;;;;;;2.38;100.00;99304.18;1714078;83;21392;-80
2022/11/27 07:48:14;;;;;;;64.62;32.90;;;;;;;2.42;100.00;99301.95;1714151;82;20974;-77
2022/11/27 07:50:41;;;;;;;59.50;28.35;;;;;;;2.45;100.00;99305.56;1714084;83;21719;-80
2022/11/27 07:53:08;;;;;;;45.40;25.20;;;;;;;2.51;100.00;99312.31;1714241;83;20988;-81
2022/11/27 07:55:38;;;;;;;44.98;28.92;;;;;;;2.58;100.00;99319.05;1714027;83;21058;-80
2022/11/27 07:58:06;;;;;;;34.88;23.00;;;;;;;2.60;100.00;99319.67;1714170;83;21007;-80
2022/11/27 08:00:33;;;;;;;44.08;27.87;;;;;;;2.64;100.00;99316.08;1713930;83;21240;-77
2022/11/27 08:03:00;;;;;;;53.98;33.42;;;;;;;2.65;100.00;99320.40;1714113;83;20960;-81
2022/11/27 08:05:27;;;;;;;48.33;29.75;;;;;;;2.67;100.00;99323.22;1714095;82;20972;-77
2022/11/27 08:07:54;;;;;;;47.43;29.40;;;;;;;2.73;100.00;99317.05;1714284;82;20975;-80
2022/11/27 08:10:21;;;;;;;47.62;25.08;;;;;;;2.77;100.00;99312.14;1714116;82;20971;-80
2022/11/27 08:12:48;;;;;;;28.23;18.67;;;;;;;2.73;100.00;99313.03;1714243;83;21010;-80
2022/11/27 08:15:15;;;;;;;36.98;22.40;;;;;;;2.76;100.00;99307.30;1714040;83;21695;-77
2022/11/27 08:17:42;;;;;;;47.43;28.92;;;;;;;2.71;100.00;99304.38;1714231;82;20948;-78
2022/11/27 08:20:09;;;;;;;35.52;19.82;;;;;;;2.73;100.00;99300.99;1714167;82;21046;-78
2022/11/27 08:22:36;;;;;;;32.15;17.07;;;;;;;2.78;100.00;99303.91;1714103;82;21047;-80
2022/11/27 08:25:04;;;;;;;27.45;14.75;;;;;;;2.83;100.00;99300.14;1714242;82;21515;-77
2022/11/27 08:27:32;;;;;;;22.52;11.93;;;;;;;2.92;100.00;99301.31;1704020;83;21476;-81
2022/11/27 08:29:59;;;;;;;18.48;11.05;;;;;;;2.96;100.00;99302.03;1714165;82;21512;-77
2022/11/27 08:32:26;;;;;;;21.00;12.03;;;;;;;3.03;100.00;99309.59;1714283;82;21074;-80
2022/11/27 08:34:53;;;;;;;18.00;11.68;;;;;;;3.08;100.00;99308.49;1713147;83;21026;-81
2022/11/27 08:37:20;;;;;;;26.90;15.55;;;;;;;3.11;100.00;99308.08;1712724;82;21049;-80
2022/11/27 08:39:47;;;;;;;31.10;16.48;;;;;;;3.17;100.00;99313.67;1712457;83;21018;-81
2022/11/27 08:42:15;;;;;;;43.30;21.07;;;;;;;3.19;100.00;99310.27;1713338;83;20944;-77
2022/11/27 08:44:41;;;;;;;30.77;14.47;;;;;;;3.22;100.00;99310.69;1714171;82;20952;-77
2022/11/27 08:47:08;;;;;;;23.32;12.03;;;;;;;3.22;100.00;99308.52;1714339;83;20974;-77
2022/11/27 08:49:35;;;;;;;27.35;16.15;;;;;;;3.21;100.00;99302.34;1714144;82;20979;-81
2022/11/27 08:52:02;;;;;;;35.50;21.23;;;;;;;3.22;100.00;99301.31;1714223;83;20956;-80
2022/11/27 08:54:29;;;;;;;23.67;14.45;;;;;;;3.21;100.00;99301.00;1713901;82;21451;-81
2022/11/27 08:56:56;;;;;;;19.37;12.37;;;;;;;3.24;100.00;99305.13;1714264;83;20995;-80
2022/11/27 08:59:23;;;;;;;23.12;12.13;;;;;;;3.24;100.00;99301.93;1713944;83;20987;-77
2022/11/27 09:01:50;;;;;;;20.62;11.83;;;;;;;3.28;100.00;99307.73;1714257;83;21010;-77
2022/11/27 09:04:17;;;;;;;27.75;16.23;;;;;;;3.30;100.00;99305.67;1713943;83;21218;-77
2022/11/27 09:06:44;;;;;;;30.37;16.50;;;;;;;3.34;100.00;99310.95;1714101;83;21467;-78
2022/11/27 09:09:11;;;;;;;28.60;16.48;;;;;;;3.38;100.00;99308.98;1714039;83;20963;-77
2022/11/27 09:11:37;;;;;;;23.90;14.68;;;;;;;3.45;100.00;99310.36;1714190;83;21030;-81
2022/11/27 09:14:04;;;;;;;31.00;19.07;;;;;;;3.49;100.00;99320.14;1714063;83;20972;-78
2022/11/27 09:16:31;;;;;;;27.65;15.70;;;;;;;3.51;100.00;99318.11;1714157;83;20996;-77
2022/11/27 09:18:58;;;;;;;25.05;16.15;;;;;;;3.48;100.00;99315.30;1703772;83;21046;-81
2022/11/27 09:21:26;;;;;;;56.85;30.12;;;;;;;3.42;100.00;99315.27;1713793;83;21506;-80
2022/11/27 09:23:54;;;;;;;57.95;34.05;;;;;;;3.38;100.00;99314.34;1714295;83;21439;-81
2022/11/27 09:26:22;;;;;;;45.67;31.45;;;;;;;3.34;100.00;99315.80;1713981;83;20951;-81
2022/11/27 09:28:49;;;;;;;55.10;33.05;;;;;;;3.36;100.00;99303.53;1714112;83;21028;-81
2022/11/27 09:31:16;;;;;;;55.40;33.38;;;;;;;3.42;100.00;99304.55;1713934;83;20998;-80
2022/11/27 09:33:44;;;;;;;55.15;33.70;;;;;;;3.44;100.00;99314.58;1714939;83;20980;-77
2022/11/27 09:36:14;;;;;;;59.67;36.33;;;;;;;3.39;100.00;99301.77;1719046;83;20960;-78
2022/11/27 09:38:41;;;;;;;55.52;31.20;;;;;;;3.39;100.00;99305.80;1719449;83;21016;-81
2022/11/27 09:41:38;;;;;;;73.35;41.92;;;;;;;3.38;100.00;99297.45;1719156;83;21051;-77
2022/11/27 09:44:16;;;;;;;62.67;39.40;;;;;;;3.45;100.00;99304.17;1685298;83;20978;-77
2022/11/27 09:46:43;;;;;;;51.48;32.17;;;;;;;3.43;100.00;99296.34;1685668;85;20998;-81
2022/11/27 09:49:23;;;;;;;43.25;27.02;;;;;;;3.43;100.00;99292.84;1685366;83;21037;-81
2022/11/27 09:51:55;;;;;;;38.92;23.70;;;;;;;3.46;100.00;99287.88;1685588;84;21505;-81
2022/11/27 09:54:58;;;;;;;32.05;21.05;;;;;;;3.49;100.00;99291.48;1685408;83;21014;-82
2022/11/27 09:57:30;;;;;;;42.23;25.02;;;;;;;3.50;100.00;99288.29;1685427;83;20978;-77
2022/11/27 10:00:01;;;;;;;35.75;24.87;;;;;;;3.50;100.00;99287.77;1678917;84;21068;-80
2022/11/27 10:02:32;;;;;;;36.48;24.37;;;;;;;3.52;100.00;99282.23;1677653;84;21127;-77
2022/11/27 10:04:59;;;;;;;31.68;19.98;;;;;;;3.56;100.00;99281.61;1677493;85;21020;-77
2022/11/27 10:07:40;;;;;;;106.58;46.70;;;;;;;3.60;100.00;99285.55;1658051;85;21755;-77
2022/11/27 10:10:55;;;;;;;42.93;23.70;;;;;;;3.61;100.00;99280.49;1677727;84;21053;-81
2022/11/27 10:13:34;;;;;;;90.80;68.72;;;;;;;3.66;100.00;99282.55;1677448;85;20961;-80
2022/11/27 10:16:24;;;;;;;86.70;66.65;;;;;;;3.64;100.00;99276.57;1666439;85;21006;-81
2022/11/27 10:19:14;;;;;;;44.93;31.02;;;;;;;3.62;100.00;99270.59;1677530;85;20965;-81
2022/11/27 10:21:55;;;;;;;27.10;16.45;;;;;;;3.66;100.00;99271.30;1676881;85;20970;-77
2022/11/27 10:24:46;;;;;;;29.18;17.42;;;;;;;3.68;100.00;99268.45;1677333;85;21429;-77
2022/11/27 10:27:30;;;;;;;32.67;18.67;;;;;;;3.68;100.00;99258.55;1677505;85;21008;-81
2022/11/27 10:29:57;;;;;;;65.45;45.33;;;;;;;3.72;100.00;99256.78;1643935;86;21463;-78
2022/11/27 10:32:27;;;;;;;43.92;28.35;;;;;;;3.76;100.00;99255.33;1640407;87;21039;-80
2022/11/27 10:35:00;;;;;;;48.20;31.00;;;;;;;3.83;100.00;99256.98;1665825;85;21743;-80
2022/11/27 10:37:57;;;;;;;36.88;24.92;;;;;;;3.85;100.00;99259.48;1651892;85;21884;-81
2022/11/27 10:40:50;;;;;;;90.22;56.63;;;;;;;3.88;100.00;99265.25;1658650;85;21024;-81
2022/11/27 10:43:19;;;;;;;51.90;33.67;;;;;;;3.88;100.00;99263.09;1649499;85;20963;-77
2022/11/27 10:46:00;;;;;;;41.95;26.97;;;;;;;3.88;100.00;99253.18;1672763;85;21666;-81
2022/11/27 10:48:28;;;;;;;43.48;27.13;;;;;;;3.88;100.00;99250.50;1672384;85;21359;-77
2022/11/27 10:50:55;;;;;;;34.50;24.40;;;;;;;3.94;100.00;99247.00;1672717;85;21452;-77
2022/11/27 10:53:31;;;;;;;31.05;20.90;;;;;;;4.01;100.00;99248.31;1672554;85;21031;-81
2022/11/27 10:56:32;;;;;;;31.33;20.25;;;;;;;4.05;100.00;99247.41;1672525;85;20978;-81
2022/11/27 10:59:05;;;;;;;29.98;19.75;;;;;;;4.10;100.00;99243.56;1672652;85;21496;-77
2022/11/27 11:01:44;;;;;;;31.62;19.55;;;;;;;4.18;100.00;99244.69;1672511;85;21672;-77
2022/11/27 11:04:13;;;;;;;31.52;19.92;;;;;;;4.26;100.00;99245.81;1672485;85;21070;-78
2022/11/27 11:06:46;;;;;;;33.18;19.25;;;;;;;4.21;100.00;99241.09;1672643;85;21014;-77
2022/11/27 11:09:28;;;;;;;48.70;29.12;;;;;;;4.25;100.00;99234.25;1672684;85;20979;-77
2022/11/27 11:12:19;;;;;;;34.35;24.23;;;;;;;4.35;100.00;99228.97;1672554;85;20983;-77
2022/11/27 11:14:53;;;;;;;40.35;24.55;;;;;;;4.32;100.00;99226.72;1672794;85;21156;-81
2022/11/27 11:17:28;;;;;;;37.70;22.60;;;;;;;4.34;100.00;99225.46;1646428;85;20995;-81
2022/11/27 11:19:55;;;;;;;54.00;42.48;;;;;;;4.38;100.00;99220.52;1672011;85;21472;-80
2022/11/27 11:22:22;;;;;;;51.73;41.15;;;;;;;4.35;100.00;99219.06;1672740;85;20994;-77
2022/11/27 11:24:51;;;;;;;81.65;39.25;;;;;;;4.33;100.00;99214.95;1672901;85;21038;-77
2022/11/27 11:27:27;;;;;;;54.63;31.60;;;;;;;4.35;100.00;99216.37;1672739;85;21467;-81
2022/11/27 11:30:00;;;;;;;32.80;20.55;;;;;;;4.46;100.00;99213.58;1672750;85;21026;-78
2022/11/27 11:32:32;;;;;;;37.08;23.77;;;;;;;4.48;100.00;99216.87;1672724;85;22220;-78
2022/11/27 11:35:09;;;;;;;42.20;25.68;;;;;;;4.50;100.00;99208.91;1677365;85;21053;-77
2022/11/27 11:37:38;;;;;;;58.20;32.85;;;;;;;4.56;100.00;99210.45;1675023;85;21536;-81
2022/11/27 11:40:20;;;;;;;26.77;15.18;;;;;;;4.61;100.00;99210.09;1679610;85;21810;-81